Ames Lake, Washington
Current Conditions -  °F | °C
As of 5:53 PM on Wednesday 26 Nov 2014 (Local Time) from KBFI Reporting Station
Overcast Overcast  
Wind Chill: 60°   Ceiling: 4200
Heat Index: 60°   Visibility: 10mi
Dew Point: 52°   Wind: 0mph
Humidity: 75%   Direction: NA
Pressure: 29.94"   Gusts: NA
Location:  47.6833°N, 122.123°W
Report Text: KBFI 270153Z 00000KT 10SM OVC042 16/11 A2994 RMK AO2 SLP138 T01560111
Loading
Personal Weather Stations






























Interactive Weather Map New forecast layout! Learn more

10-Day Weather Forecast

Advertisements
Track Severe Weather on mobile